Magnolia — WDB7135 — position and weather

sailwx.info

Track history (hours):
 
Tides and Currents Weather Stations Pressure Air Temp Water Temp Dewpoint Dewpoint Depression Visibility Wind Speed Wind Dir Waves Ship Positions

Magnolia

Owner: Magnolia Marine Transport Co, Vicksburg, MS. More information available from US FCC via Universal Licensing System and Coast Guard Vessel Documentation Center.

Last reported at 2017-Mar-01 19:33 UTC. Time now 2017-Mar-01 20:08 UTC.
Position N 32°22' W 090°53'.

Length 215 m.

MMSI: 366936960.

Date/timePositionNaut miles runAvg speedWind from/ knotsBaromVisibWave heightAir tempDewpointWater temp
2017-Mar-01 19:33N 32°22' W 090°53'1 0.8
2017-Mar-01 18:33N 32°23' W 090°53'0 0.0
2017-Mar-01 17:33N 32°23' W 090°53'1 1.1
2017-Mar-01 16:33N 32°23' W 090°54'0 0.3
2017-Mar-01 15:34N 32°23' W 090°54'1 0.8
2017-Mar-01 14:34N 32°23' W 090°54'3 2.6
2017-Mar-01 13:34N 32°20' W 090°54'5 4.9
2017-Mar-01 12:34N 32°16' W 090°58'5 5.0
2017-Mar-01 11:33N 32°11' W 090°60'5 4.7
2017-Mar-01 10:34N 32°07' W 091°02'4 4.2
2017-Mar-01 09:34N 32°07' W 091°07'6 5.0
2017-Mar-01 08:27N 32°02' W 091°04'  
2017-Feb-25 08:32N 32°07' W 091°07'5 4.9
2017-Feb-25 07:34N 32°07' W 091°01'7 7.1
2017-Feb-25 06:33N 32°14' W 090°59'8 7.7
2017-Feb-25 05:34N 32°21' W 090°54'0 0.1
2017-Feb-25 04:34N 32°21' W 090°54'0 0.0
2017-Feb-25 03:34N 32°21' W 090°54'0 0.0
2017-Feb-25 02:33N 32°21' W 090°54'0 0.1
2017-Feb-25 01:34N 32°21' W 090°54'0 0.0
2017-Feb-25 00:34N 32°21' W 090°54'1 0.6
2017-Feb-24 23:34N 32°21' W 090°53'2 2.0
2017-Feb-24 22:34N 32°23' W 090°53'2 1.5
2017-Feb-24 21:33N 32°23' W 090°55'2 2.0
2017-Feb-24 20:34N 32°22' W 090°53'2 1.8
2017-Feb-24 19:34N 32°20' W 090°54'3 2.7
2017-Feb-24 18:33N 32°18' W 090°55'3 2.8
2017-Feb-24 17:34N 32°16' W 090°58'4 4.2
2017-Feb-24 16:34N 32°12' W 090°59'3 2.9
2017-Feb-24 15:34N 32°09' W 091°00'3 3.2
2017-Feb-24 14:33N 32°08' W 091°03'3 2.7
2017-Feb-24 13:33N 32°06' W 091°06'6 4.5
2017-Feb-24 12:19N 32°01' W 091°05'14 4.4
2017-Feb-24 09:04N 31°51' W 091°17'3 4.4
2017-Feb-24 08:18N 31°51' W 091°21'  
2017-Feb-22 03:31N 31°60' W 091°05'7 7.5
2017-Feb-22 02:34N 32°07' W 091°07'7 6.7
2017-Feb-22 01:33N 32°11' W 090°60'9 8.8
2017-Feb-22 00:34N 32°18' W 090°55'4 3.7
2017-Feb-21 23:33N 32°22' W 090°53'0 0.0
2017-Feb-21 22:34N 32°22' W 090°53'0 0.0
2017-Feb-21 21:34N 32°22' W 090°53'1 1.2
2017-Feb-21 20:34N 32°21' W 090°54'0 0.3
2017-Feb-21 19:34N 32°20' W 090°54'3 3.5
2017-Feb-21 18:33N 32°18' W 090°56'4 4.2
2017-Feb-21 17:34N 32°14' W 090°59'3 2.8
2017-Feb-21 16:33N 32°11' W 090°60'4 4.3
2017-Feb-21 15:33N 32°07' W 091°01'4 4.3
2017-Feb-21 14:34N 32°07' W 091°07'5 4.4
2017-Feb-21 13:27N 32°03' W 091°03'  
Track history (hours):
 
Tides and Currents Weather Stations Pressure Air Temp Water Temp Dewpoint Dewpoint Depression Visibility Wind Speed Wind Dir Waves Ship Positions

Magnolia

Owner: Magnolia Marine Transport Co, Vicksburg, MS. More information available from US FCC via Universal Licensing System and Coast Guard Vessel Documentation Center.

Last reported at 2017-Mar-01 19:33 UTC. Time now 2017-Mar-01 20:08 UTC.
Position N 32°22' W 090°53'.

Length 215 m.

MMSI: 366936960.

Date/timePositionNaut miles runAvg speedWind from/ knotsBaromVisibWave heightAir tempDewpointWater temp
2017-Mar-01 19:33N 32°22' W 090°53'1 0.8
2017-Mar-01 18:33N 32°23' W 090°53'0 0.0
2017-Mar-01 17:33N 32°23' W 090°53'1 1.1
2017-Mar-01 16:33N 32°23' W 090°54'0 0.3
2017-Mar-01 15:34N 32°23' W 090°54'1 0.8
2017-Mar-01 14:34N 32°23' W 090°54'3 2.6
2017-Mar-01 13:34N 32°20' W 090°54'5 4.9
2017-Mar-01 12:34N 32°16' W 090°58'5 5.0
2017-Mar-01 11:33N 32°11' W 090°60'5 4.7
2017-Mar-01 10:34N 32°07' W 091°02'4 4.2
2017-Mar-01 09:34N 32°07' W 091°07'6 5.0
2017-Mar-01 08:27N 32°02' W 091°04'  
2017-Feb-25 08:32N 32°07' W 091°07'5 4.9
2017-Feb-25 07:34N 32°07' W 091°01'7 7.1
2017-Feb-25 06:33N 32°14' W 090°59'8 7.7
2017-Feb-25 05:34N 32°21' W 090°54'0 0.1
2017-Feb-25 04:34N 32°21' W 090°54'0 0.0
2017-Feb-25 03:34N 32°21' W 090°54'0 0.0
2017-Feb-25 02:33N 32°21' W 090°54'0 0.1
2017-Feb-25 01:34N 32°21' W 090°54'0 0.0
2017-Feb-25 00:34N 32°21' W 090°54'1 0.6
2017-Feb-24 23:34N 32°21' W 090°53'2 2.0
2017-Feb-24 22:34N 32°23' W 090°53'2 1.5
2017-Feb-24 21:33N 32°23' W 090°55'2 2.0
2017-Feb-24 20:34N 32°22' W 090°53'2 1.8
2017-Feb-24 19:34N 32°20' W 090°54'3 2.7
2017-Feb-24 18:33N 32°18' W 090°55'3 2.8
2017-Feb-24 17:34N 32°16' W 090°58'4 4.2
2017-Feb-24 16:34N 32°12' W 090°59'3 2.9
2017-Feb-24 15:34N 32°09' W 091°00'3 3.2
2017-Feb-24 14:33N 32°08' W 091°03'3 2.7
2017-Feb-24 13:33N 32°06' W 091°06'6 4.5
2017-Feb-24 12:19N 32°01' W 091°05'14 4.4
2017-Feb-24 09:04N 31°51' W 091°17'3 4.4
2017-Feb-24 08:18N 31°51' W 091°21'  
2017-Feb-22 03:31N 31°60' W 091°05'7 7.5
2017-Feb-22 02:34N 32°07' W 091°07'7 6.7
2017-Feb-22 01:33N 32°11' W 090°60'9 8.8
2017-Feb-22 00:34N 32°18' W 090°55'4 3.7
2017-Feb-21 23:33N 32°22' W 090°53'0 0.0
2017-Feb-21 22:34N 32°22' W 090°53'0 0.0
2017-Feb-21 21:34N 32°22' W 090°53'1 1.2
2017-Feb-21 20:34N 32°21' W 090°54'0 0.3
2017-Feb-21 19:34N 32°20' W 090°54'3 3.5
2017-Feb-21 18:33N 32°18' W 090°56'4 4.2
2017-Feb-21 17:34N 32°14' W 090°59'3 2.8
2017-Feb-21 16:33N 32°11' W 090°60'4 4.3
2017-Feb-21 15:33N 32°07' W 091°01'4 4.3
2017-Feb-21 14:34N 32°07' W 091°07'5 4.4
2017-Feb-21 13:27N 32°03' W 091°03'  

Dump ship's entire track history